Four Corners Regional Airport
KFMN : now visible

Airfield :











YOU CAN JOIN US ON...

 
LOGIN :

Register | Disclaimer

   EN    FR    IT 

 









Legend :    VFR   Marginal VFR   IFR   Intensive IFR   Very Intensive IFR
Visi :
Ceiling :
>= 8 km
>= 3000ft
5 to 8 km
1000 to 3000 ft
1500m to 5 km
500 to 1000 ft
800 to 1500m
200 to 500 ft
< 800m
< 200 ft
Symbols :   Thunderstorms  Fog  Heavy snow  Heavy precipitations  Wind > 20 kt






- Airport Elevation : 5506 ft


KFMN - Four Corners Regional

CURRENT METAR :
  • 040653Z AUTO 10008KT 10SM SCT060 OVC075 07/M04 A3028 RMK AO2 SLP241 T00671039 401281011

EXPIRED METARs :
  • 040553Z AUTO 12008KT 10SM OVC070 07/M04 A3029 RMK AO2 SLP244 T00671039 10100 20067 53001
  • 040453Z AUTO 11006KT 10SM FEW070 07/M04 A3028 RMK AO2 SLP248 T00721044

TAF KFMN
Valid from the 04 at 06:00 until the 05 at 06:00 UTC


040535Z 0406/0506 09006KT P6SM BKN050 OVC200
FM041500 10005KT P6SM BKN025 OVC050
TEMPO 0418/0422 4SM -RA BR OVC015
FM050000 VRB04KT P6SM BKN040 OVC100
KZDV FIR / North America



MET'MAP, your aeronautical weather chart ! - Copyright ORBIFLY December 2007 - Disclaimer

ORBIFLY MET'MAP TEAM :

Programming & Development : Alexandra Zaïnal
Original concept : Baudouin d'Aumeries
Technical & hardware support : Manuel Goepfert
Assistance : Marc-Olivier Méhu




SOURCES & CREDITS :

   NOAA       Earth
Advisory